Brooks, Canada
Current Conditions -  °F | °C
As of 6:00 PM on Monday 20 Oct 2014 (Local Time) from CYXH Reporting Station
Clear Clear  
Wind Chill: 72°   Ceiling: Unl
Heat Index: 72°   Visibility: 30mi
Dew Point: 34°   Wind: 8mph
Humidity: 25%   Direction: 160°SSE
Pressure: 29.63"   Gusts: NA
Location:  50.57°N, 111.9°W
Report Text: CYXH 210000Z 16007KT 30SM SKC 22/01 A2963 RMK SLP035 DENSITY ALT 4000FT
Loading
Personal Weather Stations






























Interactive Weather Map
Tropical Storm Tracking
New forecast layout! Learn more

10-Day Weather Forecast

Advertisements
Track Severe Weather on mobile